createdAt,value
2018-11-13T00:02:26.724Z,14.30
2018-11-13T00:04:57.367Z,14.24
2018-11-13T00:07:30.347Z,14.03
2018-11-13T00:10:01.595Z,14.18
2018-11-13T00:12:33.716Z,14.25
2018-11-13T00:15:05.600Z,14.37
2018-11-13T00:17:37.863Z,14.38
2018-11-13T00:20:11.445Z,14.20
2018-11-13T00:22:43.470Z,14.28
2018-11-13T00:25:14.527Z,14.26
2018-11-13T00:27:45.635Z,14.17
2018-11-13T00:30:19.255Z,14.10
2018-11-13T00:32:50.547Z,13.93
2018-11-13T00:35:20.760Z,13.93
2018-11-13T00:37:51.499Z,14.04
2018-11-13T00:40:25.712Z,13.95
2018-11-13T00:42:55.818Z,14.11
2018-11-13T00:45:26.807Z,14.16
2018-11-13T00:47:58.676Z,14.21
2018-11-13T00:50:31.198Z,14.24
2018-11-13T00:53:01.097Z,14.25
2018-11-13T00:55:31.347Z,14.28
2018-11-13T00:58:06.080Z,14.33
2018-11-13T01:00:37.969Z,14.35
2018-11-13T01:03:18.653Z,14.43
2018-11-13T01:05:49.946Z,14.50
2018-11-13T01:08:23.177Z,14.46
2018-11-13T01:10:52.949Z,14.29
2018-11-13T01:13:23.626Z,14.25
2018-11-13T01:15:53.228Z,14.30
2018-11-13T01:18:29.031Z,14.34
2018-11-13T01:21:01.391Z,14.32
2018-11-13T01:23:30.887Z,14.23
2018-11-13T01:26:01.315Z,14.23
2018-11-13T01:28:31.242Z,14.15
2018-11-13T01:31:01.092Z,14.28
2018-11-13T01:33:30.465Z,13.95
2018-11-13T01:36:01.047Z,13.89
2018-11-13T01:38:30.763Z,13.93
2018-11-13T01:41:04.881Z,13.77
2018-11-13T01:43:36.567Z,14.11
2018-11-13T01:46:08.891Z,14.18
2018-11-13T01:48:38.573Z,14.19
2018-11-13T01:51:10.902Z,14.26
2018-11-13T01:53:42.221Z,14.30
2018-11-13T01:56:12.315Z,14.32
2018-11-13T01:58:42.341Z,14.22
2018-11-13T02:01:12.256Z,14.29
2018-11-13T02:03:43.683Z,14.18
2018-11-13T02:06:15.037Z,14.14
2018-11-13T02:08:45.919Z,14.02
2018-11-13T02:11:20.409Z,14.09
2018-11-13T02:13:53.297Z,13.99
2018-11-13T02:16:23.620Z,13.99
2018-11-13T02:18:55.179Z,13.87
2018-11-13T02:21:26.932Z,13.81
2018-11-13T02:23:59.571Z,13.89
2018-11-13T02:26:32.228Z,13.97
2018-11-13T02:32:03.577Z,13.58
2018-11-13T02:34:39.064Z,14.03
2018-11-13T02:37:10.636Z,13.70
2018-11-13T02:39:42.277Z,13.48
2018-11-13T02:42:18.541Z,13.32
2018-11-13T02:44:49.631Z,13.53
2018-11-13T02:47:26.792Z,13.76
2018-11-13T02:49:59.134Z,13.85
2018-11-13T02:52:33.515Z,13.94
2018-11-13T02:55:05.068Z,13.90
2018-11-13T02:57:37.004Z,13.94
2018-11-13T03:00:17.830Z,14.05
2018-11-13T03:02:48.839Z,14.11
2018-11-13T03:05:22.166Z,14.02
2018-11-13T03:07:52.521Z,14.05
2018-11-13T03:10:24.588Z,14.09
2018-11-13T03:12:54.705Z,14.13
2018-11-13T03:15:25.814Z,14.15
2018-11-13T03:17:56.651Z,14.10
2018-11-13T03:20:28.812Z,14.01
2018-11-13T03:22:59.507Z,14.08
2018-11-13T03:25:33.109Z,14.00
2018-11-13T03:28:06.219Z,13.99
2018-11-13T03:30:42.154Z,13.71
2018-11-13T03:33:12.809Z,13.61
2018-11-13T03:35:59.856Z,13.73
2018-11-13T03:38:47.359Z,13.97
2018-11-13T03:41:17.563Z,13.46
2018-11-13T03:43:47.765Z,13.78
2018-11-13T03:46:18.611Z,13.90
2018-11-13T03:48:50.090Z,14.08
2018-11-13T03:51:21.298Z,14.00
2018-11-13T03:53:51.869Z,13.99
2018-11-13T03:56:25.472Z,13.74
2018-11-13T03:58:56.026Z,13.92
2018-11-13T04:01:25.684Z,13.85
2018-11-13T04:03:56.282Z,13.58
2018-11-13T04:06:25.871Z,13.65
2018-11-13T04:08:56.434Z,13.84
2018-11-13T04:11:28.027Z,13.74
2018-11-13T04:13:57.718Z,13.78
2018-11-13T04:16:28.443Z,13.83
2018-11-13T04:18:58.845Z,13.61
2018-11-13T04:21:31.209Z,13.71
2018-11-13T04:24:08.913Z,13.60
2018-11-13T04:26:44.583Z,13.66
2018-11-13T04:29:14.767Z,13.60
2018-11-13T04:31:49.290Z,13.68
2018-11-13T04:34:19.859Z,13.90
2018-11-13T04:36:50.854Z,13.96
2018-11-13T04:39:22.326Z,13.88
2018-11-13T04:41:54.292Z,13.78
2018-11-13T04:44:25.604Z,13.73
2018-11-13T04:47:01.819Z,13.68
2018-11-13T04:49:39.957Z,13.38
2018-11-13T04:52:11.227Z,13.27
2018-11-13T04:54:41.613Z,13.22
2018-11-13T04:57:12.862Z,13.49
2018-11-13T05:00:19.049Z,13.69
2018-11-13T05:02:51.163Z,13.39
2018-11-13T05:05:22.261Z,13.63
2018-11-13T05:07:55.007Z,13.53
2018-11-13T05:10:26.227Z,13.72
2018-11-13T05:12:58.064Z,13.90
2018-11-13T05:15:29.365Z,13.80
2018-11-13T05:17:58.907Z,13.75
2018-11-13T05:20:31.729Z,13.49
2018-11-13T05:23:01.534Z,13.05
2018-11-13T05:25:34.365Z,13.45
2018-11-13T05:28:05.552Z,13.60
2018-11-13T05:30:35.568Z,13.45
2018-11-13T05:33:05.009Z,13.39
2018-11-13T05:35:35.380Z,13.46
2018-11-13T05:38:05.131Z,13.60
2018-11-13T05:40:37.399Z,13.67
2018-11-13T05:43:07.598Z,13.58
2018-11-13T05:45:45.317Z,13.72
2018-11-13T05:48:16.898Z,13.77
2018-11-13T05:50:47.312Z,13.63
2018-11-13T05:53:18.434Z,13.66
2018-11-13T05:55:48.389Z,13.71
2018-11-13T05:58:19.045Z,13.65
2018-11-13T06:00:48.602Z,13.45
2018-11-13T06:03:18.418Z,13.49
2018-11-13T06:05:48.736Z,13.72
2018-11-13T06:08:20.051Z,13.76
2018-11-13T06:10:50.599Z,13.84
2018-11-13T06:13:21.582Z,13.87
2018-11-13T06:15:51.317Z,13.77
2018-11-13T06:18:23.004Z,13.54
2018-11-13T06:20:55.316Z,13.70
2018-11-13T06:23:26.599Z,13.52
2018-11-13T06:25:57.997Z,13.60
2018-11-13T06:28:28.047Z,13.43
2018-11-13T06:30:59.417Z,13.51
2018-11-13T06:33:30.413Z,13.33
2018-11-13T06:35:59.703Z,13.50
2018-11-13T06:38:28.958Z,13.30
2018-11-13T06:40:58.628Z,13.47
2018-11-13T06:43:28.707Z,13.49
2018-11-13T06:46:02.359Z,13.29
2018-11-13T06:48:32.255Z,13.13
2018-11-13T06:51:02.708Z,13.20
2018-11-13T06:55:46.654Z,13.31
2018-11-13T06:58:16.292Z,13.28
2018-11-13T07:00:48.442Z,13.21
2018-11-13T07:03:18.348Z,13.00
2018-11-13T07:05:49.293Z,13.12
2018-11-13T07:08:23.350Z,13.32
2018-11-13T07:11:06.493Z,13.45
2018-11-13T07:13:36.010Z,13.60
2018-11-13T07:16:07.038Z,13.70
2018-11-13T07:18:43.066Z,13.78
2018-11-13T07:21:14.421Z,13.86
2018-11-13T07:23:58.886Z,13.89
2018-11-13T07:26:45.870Z,14.05
2018-11-13T07:29:15.942Z,14.07
2018-11-13T07:31:47.560Z,14.10
2018-11-13T07:34:24.349Z,14.07
2018-11-13T07:39:48.169Z,14.38
2018-11-13T07:42:19.549Z,14.50
2018-11-13T07:44:50.268Z,14.57
2018-11-13T07:47:37.548Z,14.57
2018-11-13T07:50:15.297Z,14.59
2018-11-13T07:52:52.312Z,12.61
2018-11-13T07:55:27.034Z,14.51
2018-11-13T07:58:05.860Z,14.58
2018-11-13T08:00:42.643Z,14.78
2018-11-13T08:03:36.190Z,14.77
2018-11-13T08:10:08.373Z,14.88
2018-11-13T08:13:38.477Z,14.82
2018-11-13T08:16:24.474Z,14.43
2018-11-13T08:23:31.505Z,14.69
2018-11-13T08:32:24.458Z,14.64
2018-11-13T08:35:06.156Z,15.07
2018-11-13T08:43:55.100Z,19.07
2018-11-13T08:46:49.145Z,19.65
2018-11-13T08:49:41.966Z,19.95
2018-11-13T08:55:17.203Z,20.65
2018-11-13T08:57:51.485Z,20.30
2018-11-13T09:00:45.658Z,20.62
2018-11-13T09:03:23.548Z,20.74
2018-11-13T09:08:43.756Z,18.76
2018-11-13T09:11:40.261Z,19.68
2018-11-13T09:14:15.590Z,20.58
2018-11-13T09:16:50.734Z,21.30
2018-11-13T09:24:20.964Z,21.18
2018-11-13T09:26:57.061Z,19.44
2018-11-13T09:29:50.316Z,19.32
2018-11-13T09:32:41.103Z,19.47
2018-11-13T09:35:18.001Z,18.66
2018-11-13T09:40:19.824Z,18.63
2018-11-13T09:43:02.506Z,20.04
2018-11-13T09:48:40.533Z,19.42
2018-11-13T09:51:16.847Z,18.48
2018-11-13T09:53:54.716Z,18.04
2018-11-13T09:56:35.884Z,17.74
2018-11-13T09:59:07.923Z,17.44
2018-11-13T10:01:39.987Z,17.32
2018-11-13T10:04:12.221Z,17.47
2018-11-13T10:07:09.617Z,17.52
2018-11-13T10:09:59.311Z,18.27
2018-11-13T10:15:44.682Z,17.51
2018-11-13T10:18:30.651Z,17.55
2018-11-13T10:21:11.274Z,17.26
2018-11-13T10:23:50.634Z,17.64
2018-11-13T10:29:13.272Z,18.51
2018-11-13T10:31:44.973Z,19.38
2018-11-13T10:34:24.644Z,18.90
2018-11-13T10:37:27.938Z,18.85
2018-11-13T10:40:08.848Z,18.08
2018-11-13T10:42:42.578Z,17.86
2018-11-13T10:45:31.367Z,17.78
2018-11-13T10:48:20.349Z,17.04
2018-11-13T10:50:51.129Z,16.73
2018-11-13T10:53:29.955Z,16.86
2018-11-13T10:56:00.828Z,16.27
2018-11-13T10:58:48.712Z,16.91
2018-11-13T11:01:34.544Z,17.02
2018-11-13T11:04:11.586Z,17.16
2018-11-13T11:06:46.333Z,17.16
2018-11-13T11:09:43.013Z,18.03
2018-11-13T11:12:40.296Z,17.88
2018-11-13T11:18:28.650Z,17.08
2018-11-13T11:21:17.711Z,17.10
2018-11-13T11:24:16.684Z,17.06
2018-11-13T11:27:01.256Z,17.14
2018-11-13T11:29:53.442Z,17.09
2018-11-13T11:32:33.783Z,17.64
2018-11-13T11:38:12.194Z,17.05
2018-11-13T11:40:55.425Z,17.00
2018-11-13T11:43:40.179Z,17.04
2018-11-13T11:46:21.199Z,16.92
2018-11-13T11:49:11.165Z,17.16
2018-11-13T11:51:51.057Z,17.20
2018-11-13T11:54:24.481Z,17.06
2018-11-13T11:56:59.143Z,16.82
2018-11-13T11:59:43.122Z,17.02
2018-11-13T12:02:23.159Z,16.94
2018-11-13T12:05:12.184Z,17.07
2018-11-13T12:10:37.529Z,17.19
2018-11-13T12:16:18.230Z,17.86
2018-11-13T12:22:01.089Z,18.14
2018-11-13T12:30:40.543Z,18.49
2018-11-13T12:33:22.231Z,18.12
2018-11-13T12:36:03.787Z,18.07
2018-11-13T12:38:43.492Z,18.07
2018-11-13T12:41:22.458Z,18.28
2018-11-13T12:43:55.965Z,18.21
2018-11-13T12:46:32.662Z,18.58
2018-11-13T12:49:15.620Z,18.37
2018-11-13T12:51:53.430Z,18.78
2018-11-13T12:54:32.292Z,19.10
2018-11-13T12:57:32.830Z,18.61
2018-11-13T13:00:24.155Z,18.28
2018-11-13T13:02:59.398Z,18.25
2018-11-13T13:05:47.480Z,18.34
2018-11-13T13:08:30.877Z,18.28
2018-11-13T13:13:56.763Z,17.87
2018-11-13T13:16:36.641Z,17.71
2018-11-13T13:19:24.212Z,17.59
2018-11-13T13:22:12.322Z,17.59
2018-11-13T13:24:46.582Z,17.35
2018-11-13T13:27:25.474Z,17.51
2018-11-13T13:30:09.441Z,17.46
2018-11-13T13:32:47.652Z,17.45
2018-11-13T13:35:55.545Z,17.33
2018-11-13T13:38:30.864Z,17.23
2018-11-13T13:46:32.661Z,17.08
2018-11-13T13:51:50.510Z,16.68
2018-11-13T13:54:25.267Z,16.63
2018-11-13T13:57:00.375Z,16.77
2018-11-13T13:59:34.528Z,16.99
2018-11-13T14:02:17.048Z,17.10
2018-11-13T14:04:51.338Z,17.05
2018-11-13T14:07:23.760Z,16.99
2018-11-13T14:10:01.217Z,16.94
2018-11-13T14:12:34.339Z,16.64
2018-11-13T14:15:25.344Z,16.64
2018-11-13T14:18:05.545Z,16.65
2018-11-13T14:20:42.059Z,16.50
2018-11-13T14:23:21.014Z,16.59
2018-11-13T14:26:01.454Z,16.56
2018-11-13T14:29:04.456Z,16.42
2018-11-13T14:31:52.030Z,16.52
2018-11-13T14:34:38.160Z,16.44
2018-11-13T14:37:30.274Z,16.25
2018-11-13T14:39:59.780Z,16.26
2018-11-13T14:42:48.878Z,16.13
2018-11-13T14:45:34.434Z,16.06
2018-11-13T14:48:07.211Z,15.96
2018-11-13T14:50:41.971Z,15.92
2018-11-13T14:53:30.604Z,15.88
2018-11-13T14:56:08.771Z,15.99
2018-11-13T14:58:43.042Z,16.03
2018-11-13T15:01:19.640Z,16.02
2018-11-13T15:03:59.099Z,16.07
2018-11-13T15:06:32.846Z,15.91
2018-11-13T15:09:07.376Z,16.06
2018-11-13T15:11:39.951Z,16.13
2018-11-13T15:17:49.232Z,16.02
2018-11-13T15:20:26.694Z,15.78
2018-11-13T15:23:05.467Z,15.76
2018-11-13T15:31:17.986Z,15.50
2018-11-13T15:33:48.267Z,15.50
2018-11-13T15:36:18.182Z,15.41
2018-11-13T15:38:50.694Z,15.34
2018-11-13T15:41:25.324Z,15.31
2018-11-13T15:44:01.668Z,15.24
2018-11-13T15:46:31.974Z,15.31
2018-11-13T15:51:52.271Z,15.34
2018-11-13T15:54:26.052Z,15.25
2018-11-13T15:57:10.564Z,15.33
2018-11-13T15:59:42.628Z,15.24
2018-11-13T16:02:23.369Z,15.16
2018-11-13T16:05:02.630Z,15.00
2018-11-13T16:07:52.904Z,14.97
2018-11-13T16:10:33.468Z,14.98
2018-11-13T16:13:11.133Z,14.96
2018-11-13T16:16:16.349Z,14.96
2018-11-13T16:18:58.035Z,14.97
2018-11-13T16:21:36.323Z,14.97
2018-11-13T16:33:17.429Z,14.99
2018-11-13T16:36:00.902Z,14.80
2018-11-13T16:38:33.611Z,14.75
2018-11-13T16:41:09.313Z,14.70
2018-11-13T16:43:49.119Z,14.65
2018-11-13T16:46:26.709Z,14.62
2018-11-13T16:52:59.287Z,14.63
2018-11-13T16:55:43.211Z,14.65
2018-11-13T16:58:23.760Z,14.57
2018-11-13T17:01:20.590Z,14.59
2018-11-13T17:04:09.105Z,14.53
2018-11-13T17:09:30.411Z,14.38
2018-11-13T17:12:32.678Z,14.47
2018-11-13T17:15:18.405Z,14.49
2018-11-13T17:20:42.881Z,14.34
2018-11-13T17:23:17.931Z,14.29
2018-11-13T17:26:05.438Z,14.31
2018-11-13T17:28:35.440Z,14.29
2018-11-13T17:31:10.588Z,14.30
2018-11-13T17:33:45.706Z,14.25
2018-11-13T17:36:27.348Z,14.27
2018-11-13T17:38:59.480Z,14.39
2018-11-13T17:41:44.889Z,14.45
2018-11-13T17:44:25.172Z,14.30
2018-11-13T17:49:56.496Z,14.36
2018-11-13T17:52:38.501Z,14.30
2018-11-13T17:55:40.428Z,14.36
2018-11-13T17:58:26.874Z,14.31
2018-11-13T18:01:35.000Z,14.27
2018-11-13T18:04:07.954Z,14.32
2018-11-13T18:06:39.091Z,14.28
2018-11-13T18:09:24.363Z,14.33
2018-11-13T18:11:57.855Z,14.28
2018-11-13T18:14:35.674Z,14.25
2018-11-13T18:17:24.452Z,14.23
2018-11-13T18:23:28.130Z,14.17
2018-11-13T18:26:23.619Z,14.15
2018-11-13T18:29:05.394Z,14.17
2018-11-13T18:31:49.011Z,14.10
2018-11-13T18:40:36.365Z,13.95
2018-11-13T18:43:19.082Z,13.95
2018-11-13T18:45:54.555Z,13.87
2018-11-13T18:48:30.248Z,13.71
2018-11-13T18:51:06.154Z,13.66
2018-11-13T18:53:38.888Z,13.52
2018-11-13T18:59:43.693Z,13.43
2018-11-13T19:09:02.142Z,13.53
2018-11-13T19:11:44.935Z,13.46
2018-11-13T19:14:43.207Z,13.29
2018-11-13T19:24:14.546Z,12.72
2018-11-13T19:27:09.458Z,13.24
2018-11-13T19:33:27.420Z,13.28
2018-11-13T19:36:04.828Z,13.25
2018-11-13T19:38:58.234Z,13.24
2018-11-13T19:41:42.246Z,13.12
2018-11-13T19:44:25.123Z,13.05
2018-11-13T19:47:06.610Z,13.03
2018-11-13T19:50:02.058Z,13.13
2018-11-13T19:52:47.467Z,13.18
2018-11-13T19:55:40.066Z,13.13
2018-11-13T19:58:22.878Z,13.02
2018-11-13T20:01:00.698Z,13.06
2018-11-13T20:03:53.457Z,13.06
2018-11-13T20:06:34.617Z,12.97
2018-11-13T20:09:33.466Z,13.04
2018-11-13T20:12:40.981Z,12.90
2018-11-13T20:18:45.269Z,13.00
2018-11-13T20:21:28.543Z,13.06
2018-11-13T20:24:26.425Z,12.99
2018-11-13T20:26:58.482Z,13.04
2018-11-13T20:29:41.687Z,12.99
2018-11-13T20:32:19.453Z,13.04
2018-11-13T20:34:54.511Z,12.92
2018-11-13T20:37:32.693Z,12.50
2018-11-13T20:40:13.416Z,12.80
2018-11-13T20:45:49.813Z,13.00
2018-11-13T20:48:29.128Z,12.99
2018-11-13T20:51:05.945Z,13.01
2018-11-13T20:53:44.820Z,13.06
2018-11-13T20:56:27.897Z,12.97
2018-11-13T20:59:05.797Z,12.89
2018-11-13T21:01:40.448Z,12.88
2018-11-13T21:04:23.664Z,12.81
2018-11-13T21:07:02.918Z,12.71
2018-11-13T21:09:38.809Z,12.66
2018-11-13T21:12:34.324Z,12.70
2018-11-13T21:15:19.730Z,12.69
2018-11-13T21:17:58.646Z,12.62
2018-11-13T21:23:44.407Z,12.63
2018-11-13T21:29:32.336Z,12.70
2018-11-13T21:32:20.725Z,12.67
2018-11-13T21:35:08.345Z,12.50
2018-11-13T21:37:51.710Z,12.47
2018-11-13T21:40:30.558Z,12.35
2018-11-13T21:43:20.603Z,11.92
2018-11-13T21:46:10.706Z,11.64
2018-11-13T21:48:57.917Z,11.58
2018-11-13T21:51:38.819Z,11.69
2018-11-13T21:54:21.962Z,11.77
2018-11-13T22:00:18.993Z,11.76
2018-11-13T22:03:23.358Z,11.74
2018-11-13T22:09:30.654Z,11.55
2018-11-13T22:12:23.067Z,11.45
2018-11-13T22:15:00.871Z,11.46
2018-11-13T22:17:47.451Z,11.44
2018-11-13T22:20:43.622Z,11.54
2018-11-13T22:23:16.011Z,11.52
2018-11-13T22:25:57.218Z,11.44
2018-11-13T22:28:43.391Z,11.48
2018-11-13T22:31:18.688Z,11.48
2018-11-13T22:33:56.574Z,11.44
2018-11-13T22:36:29.989Z,11.47
2018-11-13T22:39:00.518Z,11.43
2018-11-13T22:41:31.232Z,11.37
2018-11-13T22:44:02.952Z,11.33
2018-11-13T22:46:37.127Z,11.31
2018-11-13T22:49:28.916Z,11.41
2018-11-13T22:52:00.119Z,11.41
2018-11-13T22:54:31.079Z,11.36
2018-11-13T22:57:08.591Z,11.38
2018-11-13T23:02:19.110Z,11.16
2018-11-13T23:04:52.802Z,11.26
2018-11-13T23:07:29.220Z,11.17
2018-11-13T23:09:59.730Z,11.21
2018-11-13T23:12:30.957Z,11.24
2018-11-13T23:15:05.563Z,11.18
2018-11-13T23:17:40.232Z,11.25
2018-11-13T23:20:11.363Z,11.20
2018-11-13T23:22:42.557Z,11.16
2018-11-13T23:25:14.415Z,11.06
2018-11-13T23:27:44.583Z,11.04
2018-11-13T23:30:23.324Z,11.09
2018-11-13T23:33:02.502Z,11.06
2018-11-13T23:35:35.629Z,11.00
2018-11-13T23:38:13.410Z,10.96
2018-11-13T23:40:50.379Z,10.95
2018-11-13T23:43:23.994Z,10.91
2018-11-13T23:45:59.126Z,10.84
2018-11-13T23:48:39.820Z,10.88
2018-11-13T23:51:17.090Z,10.78
2018-11-13T23:53:51.642Z,10.70
2018-11-13T23:56:27.954Z,10.75
2018-11-13T23:59:01.823Z,10.86
